Time;durP1;ratioP1;P1;durP2;ratioP2;P2;SDS_P1;SDS_P2;PMS_P1;PMS_P2;Temp;Humidity;BMP_temperature;BMP_pressure;BME280_temperature;BME280_humidity;BME280_pressure;Samples;Min_cycle;Max_cycle;Signal;HPM_P1;HPM_P2
2021/10/18 00:00:14;;;;;;;;;24.25;23.50;;;;;-147.17;100.00;50473.94;5074496;27;52654;-57
2021/10/18 00:02:39;;;;;;;;;23.75;22.75;;;;;-147.17;100.00;50525.13;5072873;28;51180;-57
2021/10/18 00:05:06;;;;;;;;;24.50;24.00;;;;;-147.17;100.00;50513.31;5072480;27;51288;-55
2021/10/18 00:07:31;;;;;;;;;25.00;23.00;;;;;-147.17;100.00;50505.44;5076041;27;51188;-56
2021/10/18 00:09:57;;;;;;;;;25.25;23.00;;;;;-147.17;100.00;50536.94;5058732;27;51531;-55
2021/10/18 00:12:22;;;;;;;;;23.00;22.25;;;;;-147.17;100.00;50521.19;5075555;27;51145;-56
2021/10/18 00:14:47;;;;;;;;;23.00;21.50;;;;;-147.17;100.00;50485.75;5072046;27;50971;-54
2021/10/18 00:17:13;;;;;;;;;24.25;23.25;;;;;-147.17;100.00;50483.78;5074056;27;51375;-54
2021/10/18 00:19:39;;;;;;;;;24.50;23.25;;;;;-147.17;100.00;50485.75;5057524;27;53226;-54
2021/10/18 00:22:04;;;;;;;;;23.50;23.25;;;;;-147.17;100.00;50479.84;5064642;28;50856;-55
2021/10/18 00:24:30;;;;;;;;;22.25;22.25;;;;;-147.17;100.00;50481.81;5073128;27;51221;-55
2021/10/18 00:26:55;;;;;;;;;20.75;18.25;;;;;-147.17;100.00;50497.56;5071918;27;51259;-55
2021/10/18 00:29:21;;;;;;;;;24.50;22.50;;;;;-147.17;100.00;50489.69;5061634;28;51114;-55
2021/10/18 00:31:46;;;;;;;;;23.50;23.00;;;;;-147.17;100.00;50487.72;5069500;28;50966;-54
2021/10/18 00:34:11;;;;;;;;;27.00;23.75;;;;;-147.17;100.00;50509.38;5070476;28;50942;-54
2021/10/18 00:36:37;;;;;;;;;22.25;21.25;;;;;-147.17;100.00;50475.91;5074075;27;50958;-55
2021/10/18 00:39:03;;;;;;;;;24.50;24.00;;;;;-147.17;100.00;50489.69;5068569;27;51112;-55
2021/10/18 00:41:28;;;;;;;;;29.25;24.50;;;;;-147.17;100.00;50505.44;5062248;27;51070;-54
2021/10/18 00:43:56;;;;;;;;;19.50;19.50;;;;;-147.17;100.00;50462.13;5038109;28;51119;-53
2021/10/18 00:46:23;;;;;;;;;26.25;24.00;;;;;-147.17;100.00;50473.94;5073779;27;51093;-54
2021/10/18 00:48:50;;;;;;;;;22.25;22.25;;;;;-147.17;100.00;50487.72;5072125;27;51846;-56
2021/10/18 00:51:17;;;;;;;;;22.50;17.75;;;;;-147.17;100.00;50446.38;5066687;27;51227;-54
2021/10/18 00:53:44;;;;;;;;;20.50;19.75;;;;;-147.17;100.00;50442.44;5062756;28;50950;-53
2021/10/18 00:56:10;;;;;;;;;25.50;22.50;;;;;-147.17;100.00;50464.09;5073564;27;51224;-54
2021/10/18 00:58:36;;;;;;;;;25.75;22.75;;;;;-147.17;100.00;50479.84;5065185;28;51295;-54
2021/10/18 01:01:02;;;;;;;;;25.00;22.50;;;;;-147.17;100.00;50489.69;5066829;27;51214;-54
2021/10/18 01:03:28;;;;;;;;;18.50;16.50;;;;;-147.17;100.00;50487.72;5061367;28;51137;-54
2021/10/18 01:05:57;;;;;;;;;24.50;23.50;;;;;-147.17;100.00;50444.41;5073636;27;51060;-54
2021/10/18 01:08:23;;;;;;;;;24.00;24.00;;;;;-147.17;100.00;50452.28;5073903;28;52416;-53
2021/10/18 01:10:48;;;;;;;;;27.25;25.00;;;;;-147.17;100.00;50464.09;5064419;27;51239;-55
2021/10/18 01:13:14;;;;;;;;;26.00;23.25;;;;;-147.17;100.00;50460.16;5062116;28;51143;-53
2021/10/18 01:15:39;;;;;;;;;24.75;21.50;;;;;-147.17;100.00;50440.47;5073904;27;51063;-53
2021/10/18 01:18:05;;;;;;;;;26.00;24.00;;;;;-147.17;100.00;50448.34;5073367;27;52150;-53
2021/10/18 01:20:32;;;;;;;;;19.50;19.00;;;;;-147.17;100.00;50442.44;5069991;28;51235;-54
2021/10/18 01:22:58;;;;;;;;;23.75;21.50;;;;;-147.17;100.00;50454.25;5056154;28;51057;-54
2021/10/18 01:25:25;;;;;;;;;23.25;20.50;;;;;-147.17;100.00;50477.88;5072459;27;51340;-55
2021/10/18 01:27:51;;;;;;;;;25.00;24.00;;;;;-147.17;100.00;50456.22;5071547;27;51745;-53
2021/10/18 01:30:17;;;;;;;;;24.00;22.75;;;;;-147.17;100.00;50464.09;5059867;28;51594;-53
2021/10/18 01:32:43;;;;;;;;;28.00;27.00;;;;;-147.17;100.00;50442.44;5051914;28;51179;-54
2021/10/18 01:35:09;;;;;;;;;27.25;25.25;;;;;-147.17;100.00;50430.63;5071587;28;51467;-54
2021/10/18 01:37:36;;;;;;;;;26.50;25.75;;;;;-147.17;100.00;50426.69;5072913;27;51836;-53
2021/10/18 01:40:05;;;;;;;;;21.25;21.00;;;;;-147.17;100.00;50454.25;5061247;28;51134;-56
2021/10/18 01:42:30;;;;;;;;;26.75;25.25;;;;;-147.17;100.00;50454.25;5063214;28;51304;-55
2021/10/18 01:44:55;;;;;;;;;21.75;21.00;;;;;-147.17;100.00;50418.81;5071738;27;51166;-53
2021/10/18 01:47:21;;;;;;;;;24.00;21.75;;;;;-147.17;100.00;50442.44;5037014;28;53233;-52
2021/10/18 01:49:46;;;;;;;;;28.75;27.25;;;;;-147.17;100.00;50468.03;5066231;27;51188;-55
2021/10/18 01:52:12;;;;;;;;;26.00;25.25;;;;;-147.17;100.00;50468.03;5060536;28;51076;-55
2021/10/18 01:54:38;;;;;;;;;32.75;24.50;;;;;-147.17;100.00;50442.44;5072015;27;51090;-53
2021/10/18 01:57:03;;;;;;;;;28.00;25.50;;;;;-147.17;100.00;50418.81;5064727;27;52839;-54
2021/10/18 01:59:29;;;;;;;;;25.00;22.75;;;;;-147.17;100.00;50438.50;5069546;27;51674;-55
2021/10/18 02:01:55;;;;;;;;;21.50;21.50;;;;;-147.17;100.00;50448.34;5061686;28;51201;-54
2021/10/18 02:04:20;;;;;;;;;20.75;20.75;;;;;-147.17;100.00;50424.72;5051216;28;51369;-55
2021/10/18 02:06:45;;;;;;;;;23.25;23.25;;;;;-147.17;100.00;50432.59;5053030;28;53035;-55
2021/10/18 02:09:11;;;;;;;;;27.50;24.75;;;;;-147.17;100.00;50407.00;5071633;27;51124;-54
2021/10/18 02:11:37;;;;;;;;;24.75;20.75;;;;;-147.17;100.00;50383.38;5070136;28;51241;-54
2021/10/18 02:14:02;;;;;;;;;25.25;24.75;;;;;-147.17;100.00;50381.41;5069249;28;51245;-54
2021/10/18 02:16:31;;;;;;;;;23.75;21.75;;;;;-147.17;100.00;50399.13;5070830;28;51955;-53
2021/10/18 02:18:57;;;;;;;;;23.25;21.50;;;;;-147.17;100.00;50426.69;5073544;27;50904;-53
2021/10/18 02:21:22;;;;;;;;;26.50;25.75;;;;;-147.17;100.00;50395.19;5057217;27;51157;-54
2021/10/18 02:23:50;;;;;;;;;25.75;24.50;;;;;-147.17;100.00;50391.25;5071976;27;51059;-55
2021/10/18 02:26:16;;;;;;;;;29.50;26.50;;;;;-147.17;100.00;50416.84;5070779;27;51149;-54
2021/10/18 02:28:41;;;;;;;;;27.75;23.00;;;;;-147.17;100.00;50379.44;5071862;27;51040;-53
2021/10/18 02:31:07;;;;;;;;;20.00;19.50;;;;;-147.17;100.00;50434.56;5061538;27;51361;-53
2021/10/18 02:33:32;;;;;;;;;24.25;23.75;;;;;-147.17;100.00;50373.53;5069122;28;51094;-55
2021/10/18 02:35:58;;;;;;;;;27.50;21.50;;;;;-147.17;100.00;50391.25;5072159;27;51083;-53
2021/10/18 02:38:23;;;;;;;;;30.50;26.75;;;;;-147.17;100.00;50375.50;5071990;28;51082;-54
2021/10/18 02:40:48;;;;;;;;;24.75;24.75;;;;;-147.17;100.00;50397.16;5060573;27;51285;-55
2021/10/18 02:43:14;;;;;;;;;24.50;24.25;;;;;-147.17;100.00;50367.63;5064287;28;51288;-53
2021/10/18 02:45:39;;;;;;;;;29.25;25.75;;;;;-147.17;100.00;50385.34;5071882;27;50989;-54
2021/10/18 02:48:05;;;;;;;;;22.50;21.25;;;;;-147.17;100.00;50399.13;5071809;27;51133;-55
2021/10/18 02:50:30;;;;;;;;;26.50;26.50;;;;;-147.17;100.00;50381.41;5061325;27;51764;-54
2021/10/18 02:52:55;;;;;;;;;25.00;20.00;;;;;-147.17;100.00;50369.59;5059825;28;51286;-54
2021/10/18 02:55:21;;;;;;;;;24.75;23.50;;;;;-147.17;100.00;50399.13;5060972;27;52241;-54
2021/10/18 02:57:47;;;;;;;;;25.00;24.25;;;;;-147.17;100.00;50340.06;5071367;27;51082;-55
2021/10/18 03:00:13;;;;;;;;;27.00;25.00;;;;;-147.17;100.00;50387.31;5069044;27;50966;-53
2021/10/18 03:02:38;;;;;;;;;22.00;20.25;;;;;-147.17;100.00;50371.56;5059217;28;51518;-54
2021/10/18 03:05:05;;;;;;;;;28.75;25.25;;;;;-147.17;100.00;50365.66;5075124;27;51599;-55
2021/10/18 03:07:30;;;;;;;;;24.50;24.00;;;;;-147.17;100.00;50351.88;5075223;28;51079;-54
2021/10/18 03:09:56;;;;;;;;;24.75;23.00;;;;;-147.17;100.00;50353.84;5071824;27;50997;-54
2021/10/18 03:12:21;;;;;;;;;25.75;25.00;;;;;-147.17;100.00;50371.56;5057520;28;51283;-52
2021/10/18 03:14:47;;;;;;;;;24.50;22.75;;;;;-147.17;100.00;50340.06;5075003;27;51149;-54
2021/10/18 03:17:12;;;;;;;;;24.00;21.75;;;;;-147.17;100.00;50355.81;5074995;27;51108;-52
2021/10/18 03:19:38;;;;;;;;;31.25;31.00;;;;;-147.17;100.00;50363.69;5056180;28;51300;-56
2021/10/18 03:22:03;;;;;;;;;30.25;28.25;;;;;-147.17;100.00;50375.50;5075466;27;51573;-55
2021/10/18 03:24:29;;;;;;;;;24.50;22.75;;;;;-147.17;100.00;50314.47;5076264;28;51227;-54
2021/10/18 03:26:54;;;;;;;;;24.25;23.75;;;;;-147.17;100.00;50336.13;5074764;28;51072;-56
2021/10/18 03:29:19;;;;;;;;;29.50;27.00;;;;;-147.17;100.00;50347.94;5074070;27;51011;-56
2021/10/18 03:31:45;;;;;;;;;29.75;26.00;;;;;-147.17;100.00;50330.22;5054108;27;51157;-55
2021/10/18 03:34:10;;;;;;;;;33.25;29.50;;;;;-147.17;100.00;50347.94;5070453;28;51236;-53
2021/10/18 03:36:36;;;;;;;;;29.75;26.25;;;;;-147.17;100.00;50344.00;5073628;28;51066;-54
2021/10/18 03:39:02;;;;;;;;;29.50;26.25;;;;;-147.17;100.00;50395.19;5073437;27;51330;-55
2021/10/18 03:41:27;;;;;;;;;27.25;24.00;;;;;-147.17;100.00;50365.66;5073003;28;50944;-54
2021/10/18 03:43:53;;;;;;;;;28.00;26.25;;;;;-147.17;100.00;50363.69;5073645;27;51875;-56
2021/10/18 03:46:18;;;;;;;;;24.25;23.25;;;;;-147.17;100.00;50344.00;5074582;27;51371;-55
2021/10/18 03:48:43;;;;;;;;;26.75;24.00;;;;;-147.17;100.00;50347.94;5074606;27;50916;-56
2021/10/18 03:51:09;;;;;;;;;25.75;25.50;;;;;-147.17;100.00;50342.03;5061732;27;51315;-55
2021/10/18 03:53:35;;;;;;;;;26.50;24.75;;;;;-147.17;100.00;50340.06;5064722;28;51083;-56
2021/10/18 03:56:00;;;;;;;;;25.00;24.50;;;;;-147.17;100.00;50353.84;5073849;27;51406;-55
2021/10/18 03:58:26;;;;;;;;;26.25;25.25;;;;;-147.17;100.00;50357.78;5072829;27;51151;-55
2021/10/18 04:00:51;;;;;;;;;24.00;23.75;;;;;-147.17;100.00;50347.94;5075864;27;51133;-55
2021/10/18 04:03:17;;;;;;;;;26.25;24.50;;;;;-147.17;100.00;50375.50;5071659;28;51192;-54
2021/10/18 04:05:42;;;;;;;;;25.25;25.25;;;;;-147.17;100.00;50342.03;5072050;27;51114;-55
2021/10/18 04:08:08;;;;;;;;;26.75;25.25;;;;;-147.17;100.00;50399.13;5064351;28;51032;-54
2021/10/18 04:10:33;;;;;;;;;30.50;29.00;;;;;-147.17;100.00;50312.53;5067163;27;51109;-55
2021/10/18 04:13:00;;;;;;;;;22.50;21.25;;;;;-147.17;100.00;50320.38;5068306;28;51721;-55
2021/10/18 04:15:26;;;;;;;;;28.00;24.00;;;;;-147.17;100.00;50355.81;5071791;28;50984;-55
2021/10/18 04:17:51;;;;;;;;;29.00;27.75;;;;;-147.17;100.00;50359.75;5072859;27;51063;-55
2021/10/18 04:20:17;;;;;;;;;30.00;25.25;;;;;-147.17;100.00;50365.66;5070111;27;51256;-56
2021/10/18 04:22:46;;;;;;;;;25.75;25.25;;;;;-147.17;100.00;50336.13;5068400;28;51061;-58
2021/10/18 04:25:12;;;;;;;;;24.00;22.25;;;;;-147.17;100.00;50286.94;5071348;27;51312;-54
2021/10/18 04:27:37;;;;;;;;;31.25;28.75;;;;;-147.17;100.00;50308.59;5074318;28;51084;-54
2021/10/18 04:30:03;;;;;;;;;28.75;23.25;;;;;-147.17;100.00;50304.66;5072142;27;51284;-55
2021/10/18 04:32:29;;;;;;;;;25.50;24.25;;;;;-147.17;100.00;50322.34;5067218;28;51945;-54
2021/10/18 04:34:54;;;;;;;;;29.00;27.00;;;;;-147.17;100.00;50349.91;5071558;28;51137;-55
2021/10/18 04:37:20;;;;;;;;;28.25;24.50;;;;;-147.17;100.00;50281.03;5073788;27;51001;-55
2021/10/18 04:39:45;;;;;;;;;29.00;27.50;;;;;-147.17;100.00;50316.44;5073926;27;51265;-54
2021/10/18 04:42:10;;;;;;;;;26.25;22.50;;;;;-147.17;100.00;50308.59;5062745;28;54154;-54
2021/10/18 04:44:37;;;;;;;;;23.25;22.50;;;;;-147.17;100.00;50320.38;5071606;27;51047;-55
2021/10/18 04:47:03;;;;;;;;;29.00;28.50;;;;;-147.17;100.00;50304.66;5071913;27;51361;-56
2021/10/18 04:49:28;;;;;;;;;29.75;27.25;;;;;-147.17;100.00;50322.34;5073410;27;51344;-56
2021/10/18 04:51:54;;;;;;;;;28.50;25.25;;;;;-147.17;100.00;50312.53;5058076;27;52270;-54
2021/10/18 04:54:19;;;;;;;;;28.25;25.25;;;;;-147.17;100.00;50330.22;5072215;27;51107;-54
2021/10/18 04:56:45;;;;;;;;;27.00;26.00;;;;;-147.17;100.00;50312.53;5071886;28;51383;-55
2021/10/18 04:59:10;;;;;;;;;29.50;28.75;;;;;-147.17;100.00;50300.72;5073988;27;50916;-55
2021/10/18 05:01:35;;;;;;;;;29.00;25.50;;;;;-147.17;100.00;50324.31;5060616;27;52738;-54
2021/10/18 05:04:01;;;;;;;;;24.50;21.75;;;;;-147.17;100.00;50322.34;5062415;28;51208;-55
2021/10/18 05:06:26;;;;;;;;;28.00;24.50;;;;;-147.17;100.00;50324.31;5073332;27;51383;-55
2021/10/18 05:08:54;;;;;;;;;26.00;24.25;;;;;-147.17;100.00;50283.00;5073536;27;51238;-53
2021/10/18 05:11:19;;;;;;;;;28.75;26.50;;;;;-147.17;100.00;50300.72;5051963;28;52524;-54
2021/10/18 05:13:45;;;;;;;;;33.25;28.00;;;;;-147.17;100.00;50306.63;5060865;28;50987;-54
2021/10/18 05:16:10;;;;;;;;;30.25;28.00;;;;;-147.17;100.00;50314.47;5071812;28;50952;-56
2021/10/18 05:18:36;;;;;;;;;32.75;32.75;;;;;-147.17;100.00;50312.53;5072999;27;52200;-55
2021/10/18 05:21:05;;;;;;;;;26.25;25.00;;;;;-147.17;100.00;50310.56;5071715;27;52294;-55
2021/10/18 05:23:31;;;;;;;;;35.00;33.00;;;;;-147.17;100.00;50273.16;5054269;27;51093;-55
2021/10/18 05:25:56;;;;;;;;;35.75;33.00;;;;;-147.17;100.00;50316.44;5072650;27;51385;-55
2021/10/18 05:28:22;;;;;;;;;34.00;33.25;;;;;-147.17;100.00;50312.53;5073023;27;51046;-55
2021/10/18 05:30:47;;;;;;;;;36.00;33.50;;;;;-147.17;100.00;50338.09;5072837;27;51965;-54
2021/10/18 05:33:13;;;;;;;;;26.75;26.75;;;;;-147.17;100.00;50320.38;5060732;27;51180;-55
2021/10/18 05:35:38;;;;;;;;;33.50;30.25;;;;;-147.17;100.00;50304.66;5073177;28;51388;-55
2021/10/18 05:38:04;;;;;;;;;26.25;25.75;;;;;-147.17;100.00;50324.31;5073395;28;51086;-52
2021/10/18 05:40:29;;;;;;;;;30.50;29.50;;;;;-147.17;100.00;50332.19;5063567;27;51903;-54
2021/10/18 05:42:55;;;;;;;;;31.00;28.00;;;;;-147.17;100.00;50304.66;5056052;27;51126;-55
2021/10/18 05:45:21;;;;;;;;;24.50;24.00;;;;;-147.17;100.00;50304.66;5063565;28;51627;-54
2021/10/18 05:47:54;;;;;;;;;29.50;28.50;;;;;-147.17;100.00;50308.59;5070752;28;51198;-55
2021/10/18 05:50:21;;;;;;;;;29.25;29.00;;;;;-147.17;100.00;50290.88;5070375;27;51376;-54
2021/10/18 05:52:46;;;;;;;;;27.50;25.00;;;;;-147.17;100.00;50292.84;5065865;27;51095;-54
2021/10/18 05:55:11;;;;;;;;;27.50;25.25;;;;;-147.17;100.00;50296.78;5070898;27;51352;-54
2021/10/18 05:57:51;;;;;;;;;19.00;19.00;;;;;-147.17;100.00;50320.38;5072474;27;50934;-54
2021/10/18 06:00:18;;;;;;;;;28.50;25.75;;;;;-147.17;100.00;50320.38;5070379;28;52166;-55
2021/10/18 06:02:43;;;;;;;;;24.25;23.25;;;;;-147.17;100.00;50320.38;5058688;27;51134;-56
2021/10/18 06:05:09;;;;;;;;;33.25;32.50;;;;;-147.17;100.00;50300.72;5069803;28;51071;-56
2021/10/18 06:07:35;;;;;;;;;26.25;26.25;;;;;-147.17;100.00;50306.63;5071953;27;51346;-55
2021/10/18 06:10:00;;;;;;;;;22.75;20.75;;;;;-147.17;100.00;50284.97;5071750;27;51205;-55
2021/10/18 06:12:25;;;;;;;;;30.00;28.50;;;;;-147.17;100.00;50314.47;5062676;27;51110;-55
2021/10/18 06:14:51;;;;;;;;;27.25;25.50;;;;;-147.17;100.00;50277.09;5070265;28;51662;-55
2021/10/18 06:17:16;;;;;;;;;30.25;29.25;;;;;-147.17;100.00;50316.44;5072206;27;51423;-54
2021/10/18 06:19:41;;;;;;;;;29.75;29.50;;;;;-147.17;100.00;50292.84;5071139;27;52449;-56
2021/10/18 06:22:07;;;;;;;;;24.50;23.25;;;;;-147.17;100.00;50292.84;5064254;27;51172;-57
2021/10/18 06:24:32;;;;;;;;;21.75;19.75;;;;;-147.17;100.00;50300.72;5061686;28;50976;-54
2021/10/18 06:26:57;;;;;;;;;22.75;21.50;;;;;-147.17;100.00;50279.06;5071098;27;51070;-55
2021/10/18 06:29:25;;;;;;;;;22.75;20.75;;;;;-147.17;100.00;50257.41;5069583;27;52067;-54
2021/10/18 06:31:50;;;;;;;;;25.25;25.00;;;;;-147.17;100.00;50245.59;5064449;28;51219;-55
2021/10/18 06:34:15;;;;;;;;;27.75;27.00;;;;;-147.17;100.00;50302.69;5069961;28;51269;-55
2021/10/18 06:36:41;;;;;;;;;26.50;25.50;;;;;-147.17;100.00;50245.59;5074598;27;51052;-54
2021/10/18 06:39:06;;;;;;;;;28.50;27.25;;;;;-147.17;100.00;50294.81;5065554;27;52002;-54
2021/10/18 06:41:31;;;;;;;;;30.00;26.25;;;;;-147.17;100.00;50283.00;5072784;27;51325;-55
2021/10/18 06:43:57;;;;;;;;;26.50;23.75;;;;;-147.17;100.00;50294.81;5058250;28;50987;-54
2021/10/18 06:46:22;;;;;;;;;27.50;26.50;;;;;-147.17;100.00;50316.44;5074968;27;51136;-55
2021/10/18 06:48:47;;;;;;;;;28.00;26.25;;;;;-147.17;100.00;50294.81;5074279;27;51835;-55
2021/10/18 06:51:13;;;;;;;;;30.75;28.25;;;;;-147.17;100.00;50308.59;5074900;27;51134;-53
2021/10/18 06:53:39;;;;;;;;;25.50;21.50;;;;;-147.17;100.00;50271.19;5074270;27;51049;-55
2021/10/18 06:56:06;;;;;;;;;31.00;27.50;;;;;-147.17;100.00;50281.03;5075281;27;51370;-54
2021/10/18 06:58:32;;;;;;;;;36.00;34.50;;;;;-147.17;100.00;50277.09;5074173;27;53224;-53
2021/10/18 07:00:58;;;;;;;;;28.00;24.25;;;;;-147.17;100.00;50304.66;5074733;27;51136;-55
2021/10/18 07:03:24;;;;;;;;;24.00;24.00;;;;;-147.17;100.00;50269.22;5059318;27;51076;-57
2021/10/18 07:05:49;;;;;;;;;25.25;24.50;;;;;-147.17;100.00;50300.72;5074892;27;51154;-56
2021/10/18 07:08:16;;;;;;;;;27.50;25.75;;;;;-147.17;100.00;50310.56;5063562;27;52140;-56
2021/10/18 07:10:42;;;;;;;;;29.25;27.00;;;;;-147.17;100.00;50292.84;5060710;27;51038;-55
2021/10/18 07:13:09;;;;;;;;;26.25;25.00;;;;;-147.17;100.00;50312.53;5071030;28;51004;-53
2021/10/18 07:15:38;;;;;;;;;25.25;24.25;;;;;-147.17;100.00;50302.69;5073147;28;51482;-56
2021/10/18 07:18:06;;;;;;;;;20.25;19.50;;;;;-147.17;100.00;50308.59;5074056;27;51944;-54
2021/10/18 07:20:31;;;;;;;;;27.50;25.50;;;;;-147.17;100.00;50324.31;5061174;27;51102;-54
2021/10/18 07:22:59;;;;;;;;;28.50;27.00;;;;;-147.17;100.00;50324.31;5073825;28;51056;-56
2021/10/18 07:25:25;;;;;;;;;27.00;25.25;;;;;-147.17;100.00;50324.31;5074675;27;51089;-55
2021/10/18 07:27:51;;;;;;;;;27.75;25.50;;;;;-147.17;100.00;50345.97;5073666;28;52233;-56
2021/10/18 07:30:16;;;;;;;;;22.00;21.00;;;;;-147.17;100.00;50279.06;5063727;27;51172;-57
2021/10/18 07:32:44;;;;;;;;;22.25;21.75;;;;;-147.17;100.00;50304.66;5070354;28;51367;-57
2021/10/18 07:35:13;;;;;;;;;31.50;27.75;;;;;-147.17;100.00;50320.38;5075204;27;51018;-56
2021/10/18 07:37:40;;;;;;;;;26.50;25.50;;;;;-147.17;100.00;50314.47;5073855;27;51780;-54
2021/10/18 07:40:06;;;;;;;;;25.50;23.75;;;;;-147.17;100.00;50377.47;5055445;28;51219;-56
2021/10/18 07:42:31;;;;;;;;;32.25;30.50;;;;;-147.17;100.00;50363.69;5063889;27;51274;-56
2021/10/18 07:44:57;;;;;;;;;26.50;24.50;;;;;-147.17;100.00;50359.75;5051971;28;51031;-55
2021/10/18 07:47:22;;;;;;;;;25.00;22.50;;;;;-147.17;100.00;50393.22;5067094;28;50971;-54
2021/10/18 07:49:48;;;;;;;;;31.50;29.25;;;;;-147.17;100.00;50430.63;5057068;27;51130;-55
2021/10/18 07:52:14;;;;;;;;;54.50;44.25;;;;;-147.17;100.00;50487.72;5067270;28;51143;-55
2021/10/18 07:54:41;;;;;;;;;27.00;26.25;;;;;-147.17;100.00;50509.38;5061688;28;51325;-57
2021/10/18 07:57:07;;;;;;;;;29.50;27.50;;;;;-147.17;100.00;50607.81;5055770;28;51156;-61
2021/10/18 07:59:33;;;;;;;;;27.50;26.00;;;;;-147.17;98.26;50599.94;5064567;28;50970;-65
2021/10/18 08:01:59;;;;;;;;;27.75;26.50;;;;;-147.17;97.92;50672.78;5067737;27;51101;-65
2021/10/18 08:04:25;;;;;;;;;27.50;25.00;;;;;-147.17;95.98;50645.22;5066704;27;51348;-65
2021/10/18 08:06:50;;;;;;;;;31.25;28.75;;;;;-147.17;97.72;50625.53;5057660;28;51211;-54
2021/10/18 08:09:15;;;;;;;;;27.00;25.25;;;;;-147.17;97.57;50603.88;5059996;28;51052;-53
2021/10/18 08:11:41;;;;;;;;;25.75;25.50;;;;;-147.17;98.06;50556.63;5074622;27;51124;-54
2021/10/18 08:14:06;;;;;;;;;26.00;26.00;;;;;-147.17;98.82;50596.00;5074669;27;51239;-54
2021/10/18 08:16:32;;;;;;;;;20.50;20.00;;;;;-147.17;96.41;50643.25;5073808;27;52071;-50
2021/10/18 08:18:57;;;;;;;;;28.00;26.25;;;;;-147.17;95.82;50619.63;5072625;27;51453;-51
2021/10/18 08:21:23;;;;;;;;;20.50;15.75;;;;;-147.17;95.61;50597.97;5063063;27;51159;-54
2021/10/18 08:23:49;;;;;;;;;26.50;26.50;;;;;-147.17;93.88;50643.25;5056294;28;51222;-51
2021/10/18 08:26:14;;;;;;;;;24.25;24.25;;;;;-147.17;93.97;50662.94;5067526;28;51459;-53
2021/10/18 08:28:40;;;;;;;;;24.00;24.00;;;;;-147.17;93.78;50619.63;5061116;28;51157;-52
2021/10/18 08:31:06;;;;;;;;;25.25;24.50;;;;;-147.17;93.10;50676.72;5060434;27;51236;-53
2021/10/18 08:33:31;;;;;;;;;23.75;23.25;;;;;-147.17;91.78;50659.00;5071874;27;51267;-53
2021/10/18 08:35:57;;;;;;;;;33.25;29.75;;;;;-147.17;91.48;50653.09;5073894;27;51822;-53
2021/10/18 08:46:02;;;;;;;;;25.00;24.75;;;;;-147.17;90.22;50727.91;5067412;27;51728;-50
2021/10/18 08:48:29;;;;;;;;;28.75;25.50;;;;;-147.17;86.44;50759.41;5067851;28;51144;-50
2021/10/18 08:50:55;;;;;;;;;28.75;27.00;;;;;-147.17;85.83;50749.56;5072234;27;50983;-54
2021/10/18 08:53:20;;;;;;;;;26.00;26.00;;;;;-147.17;85.25;50757.44;5072971;27;52365;-53
2021/10/18 08:55:46;;;;;;;;;30.75;28.75;;;;;-147.17;86.21;50781.06;5072186;28;52225;-52
2021/10/18 08:58:12;;;;;;;;;25.75;25.25;;;;;-147.17;85.65;50733.81;5073075;27;51121;-53
2021/10/18 09:00:46;;;;;;;;;33.50;31.50;;;;;-147.17;85.92;50737.75;5068319;27;51307;-53
2021/10/18 09:03:28;;;;;;;;;20.75;20.75;;;;;-147.17;85.98;50718.06;5072970;27;51355;-52
2021/10/18 09:06:23;;;;;;;;;32.75;30.75;;;;;-147.17;86.94;50755.47;5070032;28;51114;-51
2021/10/18 09:08:51;;;;;;;;;29.00;27.50;;;;;-147.17;86.89;50735.78;5072138;27;50976;-50
2021/10/18 09:11:21;;;;;;;;;36.00;32.25;;;;;-147.17;88.69;50702.31;5063176;27;51164;-55
2021/10/18 09:13:52;;;;;;;;;28.75;28.25;;;;;-147.17;88.45;50739.72;5066395;28;51111;-53
2021/10/18 09:16:30;;;;;;;;;31.25;30.75;;;;;-147.17;86.97;50722.00;5072594;28;51112;-57
2021/10/18 09:19:01;;;;;;;;;29.00;26.50;;;;;-147.17;87.73;50694.44;5072772;27;51121;-53
2021/10/18 09:21:28;;;;;;;;;30.75;29.75;;;;;-147.17;88.50;50749.56;5072110;27;51164;-51
2021/10/18 09:23:54;;;;;;;;;32.00;28.75;;;;;-147.17;88.98;50684.59;5073024;28;51264;-54
2021/10/18 09:26:23;;;;;;;;;34.75;31.00;;;;;-147.17;89.43;50694.44;5072363;27;51251;-55
2021/10/18 09:28:53;;;;;;;;;26.25;25.50;;;;;-147.17;89.53;50737.75;5060945;28;51192;-50
2021/10/18 09:31:21;;;;;;;;;32.50;29.50;;;;;-147.17;90.29;50674.75;5070170;27;51177;-51
2021/10/18 09:33:56;;;;;;;;;29.00;27.75;;;;;-147.17;91.08;50657.03;5072332;27;51016;-52
2021/10/18 09:36:32;;;;;;;;;30.75;29.25;;;;;-147.17;91.71;50637.34;5072461;27;52020;-54
2021/10/18 09:39:16;;;;;;;;;34.50;32.00;;;;;-147.17;92.23;50629.47;5072592;27;50980;-54
2021/10/18 09:41:59;;;;;;;;;30.25;28.25;;;;;-147.17;92.46;50655.06;5071439;27;50922;-51
2021/10/18 09:44:57;;;;;;;;;29.25;27.75;;;;;-147.17;93.18;50651.13;5073441;27;51082;-54
2021/10/18 10:52:47;;;;;;;;;34.50;31.00;;;;;-147.17;85.82;50848.00;5071670;28;50901;-53
2021/10/18 10:55:26;;;;;;;;;33.75;31.50;;;;;-147.17;84.14;50863.75;5068863;28;52687;-53
2021/10/18 10:57:54;;;;;;;;;28.50;28.25;;;;;-147.17;80.68;51005.50;5071403;27;51051;-54
2021/10/18 11:00:40;;;;;;;;;27.50;27.25;;;;;-147.17;77.15;51123.63;5071411;27;51336;-53
2021/10/18 11:03:23;;;;;;;;;29.50;29.50;;;;;-147.17;74.37;51182.72;5067340;27;51252;-55
2021/10/18 11:06:05;;;;;;;;;31.25;30.00;;;;;-147.17;73.73;51224.06;5070829;27;51135;-54
2021/10/18 11:08:38;;;;;;;;;32.75;30.50;;;;;-147.17;72.29;51328.41;5071057;28;51112;-52
2021/10/18 11:11:21;;;;;;;;;29.50;28.50;;;;;-147.17;71.59;51302.81;5071648;27;51090;-53
2021/10/18 11:13:55;;;;;;;;;33.00;30.25;;;;;-147.17;73.60;51131.50;5069671;28;51294;-52
2021/10/18 11:16:29;;;;;;;;;30.50;29.25;;;;;-147.17;73.09;51212.25;5069015;27;51872;-52
2021/10/18 11:19:01;;;;;;;;;38.00;32.00;;;;;-147.17;72.26;51269.34;5071003;28;51171;-51
2021/10/18 11:21:26;;;;;;;;;53.75;44.25;;;;;-147.17;72.78;51261.47;5074427;28;51059;-52
2021/10/18 11:23:57;;;;;;;;;46.00;40.00;;;;;-147.17;72.84;51182.72;5074225;27;51039;-53
2021/10/18 11:26:24;;;;;;;;;31.00;26.00;;;;;-147.17;72.78;51216.19;5072645;28;52214;-50
2021/10/18 11:28:55;;;;;;;;;32.00;30.25;;;;;-147.17;73.22;51208.31;5073834;27;51247;-51
2021/10/18 11:31:25;;;;;;;;;33.00;30.75;;;;;-147.17;72.67;51267.38;5074244;27;51065;-50
2021/10/18 11:34:07;;;;;;;;;34.00;30.25;;;;;-147.17;72.53;51249.66;5072817;27;51287;-50
2021/10/18 11:36:33;;;;;;;;;33.75;30.25;;;;;-147.17;72.22;51229.97;5074123;28;52277;-53
2021/10/18 11:39:10;;;;;;;;;29.25;28.00;;;;;-147.17;72.47;51265.41;5073816;27;51001;-52
2021/10/18 11:41:55;;;;;;;;;28.25;27.25;;;;;-147.17;73.58;51202.41;5070895;27;51250;-52
2021/10/18 11:44:57;;;;;;;;;31.00;29.00;;;;;-147.17;74.17;51198.47;5061281;28;51004;-51
2021/10/18 11:47:35;;;;;;;;;30.00;29.00;;;;;-147.17;75.48;51098.03;5073590;27;52186;-55
2021/10/18 11:50:09;;;;;;;;;31.00;30.50;;;;;-147.17;76.78;51121.66;5074093;27;51189;-52
2021/10/18 11:52:41;;;;;;;;;26.75;25.25;;;;;-147.17;77.76;51064.56;5072568;27;51308;-54
2021/10/18 11:55:08;;;;;;;;;29.00;26.50;;;;;-147.17;78.31;51046.84;5074485;27;51072;-52
2021/10/18 11:57:39;;;;;;;;;28.25;27.50;;;;;-147.17;79.49;51029.13;5072027;27;51757;-53
2021/10/18 12:00:07;;;;;;;;;27.75;25.50;;;;;-147.17;80.80;51009.44;5066269;27;50970;-52
2021/10/18 12:02:32;;;;;;;;;28.25;26.50;;;;;-147.17;81.23;50981.88;5067343;27;51292;-50
2021/10/18 12:05:00;;;;;;;;;31.50;30.75;;;;;-147.17;81.97;50966.13;5068315;27;51253;-54
2021/10/18 12:07:38;;;;;;;;;27.25;26.50;;;;;-147.17;82.67;50940.53;5063380;27;51319;-54
2021/10/18 12:10:26;;;;;;;;;28.75;28.25;;;;;-147.17;82.94;50918.88;5071928;27;51121;-52